Time;durP1;ratioP1;P1;durP2;ratioP2;P2;SDS_P1;SDS_P2;PMS_P1;PMS_P2;Temp;Humidity;BMP_temperature;BMP_pressure;BME280_temperature;BME280_humidity;BME280_pressure;Samples;Min_cycle;Max_cycle;Signal;HPM_P1;HPM_P2
2023/08/04 00:00:29;;;;;;;2.70;0.70;;;;;;;;;;107034;1274;24405;-82
2023/08/04 00:03:17;;;;;;;2.30;0.60;;;;;;;;;;107064;1274;24352;-82
2023/08/04 00:05:44;;;;;;;2.80;0.70;;;;;;;;;;107037;1274;25217;-76
2023/08/04 00:08:10;;;;;;;2.20;0.40;;;;;;;;;;106907;1258;22527;-76
2023/08/04 00:10:37;;;;;;;3.50;0.70;;;;;;;;;;107128;1251;24189;-82
2023/08/04 00:13:04;;;;;;;1.60;0.70;;;;;;;;;;107142;1274;22521;-76
2023/08/04 00:15:31;;;;;;;1.70;0.60;;;;;;;;;;107030;1275;24432;-75
2023/08/04 00:17:58;;;;;;;3.30;0.60;;;;;;;;;;107034;1274;22520;-81
2023/08/04 00:20:24;;;;;;;3.80;0.70;;;;;;;;;;107150;1273;22661;-80
2023/08/04 00:22:51;;;;;;;2.00;0.70;;;;;;;;;;107168;1273;22521;-77
2023/08/04 00:25:18;;;;;;;1.70;0.60;;;;;;;;;;106927;1274;22521;-82
2023/08/04 00:27:45;;;;;;;2.00;0.70;;;;;;;;;;107098;1264;22557;-82
2023/08/04 00:30:12;;;;;;;0.90;0.50;;;;;;;;;;107140;1274;22517;-76
2023/08/04 00:32:39;;;;;;;2.30;0.80;;;;;;;;;;107168;1256;22524;-82
2023/08/04 00:35:06;;;;;;;1.90;0.60;;;;;;;;;;107096;1274;22467;-81
2023/08/04 00:37:36;;;;;;;1.40;0.50;;;;;;;;;;107132;1257;22543;-78
2023/08/04 00:40:03;;;;;;;3.00;0.50;;;;;;;;;;107041;1274;22520;-82
2023/08/04 00:42:29;;;;;;;1.70;0.50;;;;;;;;;;106906;1274;22537;-75
2023/08/04 00:44:56;;;;;;;1.70;0.50;;;;;;;;;;107166;1274;22520;-79
2023/08/04 00:47:25;;;;;;;2.90;0.50;;;;;;;;;;106888;1260;22536;-81
2023/08/04 00:49:53;;;;;;;1.80;0.60;;;;;;;;;;107160;1274;23135;-75
2023/08/04 00:52:20;;;;;;;2.10;0.40;;;;;;;;;;107141;1274;22532;-78
2023/08/04 00:54:47;;;;;;;3.00;0.50;;;;;;;;;;107126;1274;24034;-81
2023/08/04 00:57:14;;;;;;;2.00;0.60;;;;;;;;;;107123;1274;24358;-77
2023/08/04 00:59:41;;;;;;;0.80;0.40;;;;;;;;;;107031;1274;22664;-77
2023/08/04 01:02:08;;;;;;;1.80;0.50;;;;;;;;;;107097;1274;22511;-82
2023/08/04 01:04:35;;;;;;;2.30;0.60;;;;;;;;;;107053;1274;24113;-79
2023/08/04 01:07:12;;;;;;;2.00;0.40;;;;;;;;;;106936;1273;22518;-75
2023/08/04 01:09:46;;;;;;;3.10;0.60;;;;;;;;;;106997;1257;22515;-77
2023/08/04 01:12:21;;;;;;;1.50;0.70;;;;;;;;;;107032;1274;22641;-76
2023/08/04 01:14:49;;;;;;;2.50;0.60;;;;;;;;;;107075;1274;25331;-76
2023/08/04 01:17:23;;;;;;;1.30;0.50;;;;;;;;;;107135;1274;22619;-75
2023/08/04 01:19:50;;;;;;;2.10;0.60;;;;;;;;;;107113;1266;26479;-78
2023/08/04 01:22:17;;;;;;;3.30;0.80;;;;;;;;;;107028;1274;22521;-80
2023/08/04 01:24:44;;;;;;;1.60;0.60;;;;;;;;;;107162;1274;25480;-82
2023/08/04 01:27:14;;;;;;;1.90;0.60;;;;;;;;;;107147;1274;22517;-75
2023/08/04 01:29:44;;;;;;;3.20;0.70;;;;;;;;;;107134;1275;22510;-77
2023/08/04 01:32:11;;;;;;;1.80;0.60;;;;;;;;;;106929;1275;22531;-79
2023/08/04 01:34:41;;;;;;;2.90;0.70;;;;;;;;;;106895;1275;25361;-80
2023/08/04 01:37:08;;;;;;;3.30;0.80;;;;;;;;;;107124;1274;22521;-79
2023/08/04 01:39:37;;;;;;;2.80;0.60;;;;;;;;;;107113;1254;25220;-79
2023/08/04 01:42:04;;;;;;;2.20;0.50;;;;;;;;;;107181;1251;24216;-82
2023/08/04 01:44:31;;;;;;;1.60;0.40;;;;;;;;;;107181;1274;24208;-77
2023/08/04 01:46:58;;;;;;;2.00;0.60;;;;;;;;;;107131;1274;22540;-76
2023/08/04 01:49:25;;;;;;;2.10;0.50;;;;;;;;;;107026;1254;23332;-78
2023/08/04 01:51:52;;;;;;;1.10;0.50;;;;;;;;;;107066;1274;22527;-82
2023/08/04 01:54:18;;;;;;;2.20;0.70;;;;;;;;;;106918;1274;22543;-75
2023/08/04 01:56:46;;;;;;;2.80;0.70;;;;;;;;;;107166;1274;25478;-80
2023/08/04 01:59:12;;;;;;;2.90;0.80;;;;;;;;;;107053;1257;22533;-77
2023/08/04 02:01:41;;;;;;;1.80;0.80;;;;;;;;;;107106;1274;26482;-77
2023/08/04 02:04:08;;;;;;;2.90;0.80;;;;;;;;;;107053;1274;22627;-80
2023/08/04 02:06:34;;;;;;;2.50;0.60;;;;;;;;;;107145;1274;25301;-79
2023/08/04 02:09:03;;;;;;;2.10;0.60;;;;;;;;;;107054;1254;22532;-76
2023/08/04 02:11:31;;;;;;;2.10;0.60;;;;;;;;;;107088;1275;22528;-81
2023/08/04 02:14:00;;;;;;;3.20;0.80;;;;;;;;;;107171;1273;22485;-81
2023/08/04 02:16:27;;;;;;;3.60;0.70;;;;;;;;;;107060;1274;22517;-81
2023/08/04 02:19:00;;;;;;;2.90;0.70;;;;;;;;;;106887;1274;22520;-75
2023/08/04 02:21:26;;;;;;;2.20;0.60;;;;;;;;;;106993;1274;22541;-76
2023/08/04 02:23:54;;;;;;;1.40;0.60;;;;;;;;;;107145;1274;22533;-77
2023/08/04 02:26:20;;;;;;;5.10;0.60;;;;;;;;;;107115;1274;22980;-76
2023/08/04 02:28:49;;;;;;;4.70;0.80;;;;;;;;;;107155;1274;22528;-75
2023/08/04 02:31:17;;;;;;;3.30;0.60;;;;;;;;;;106865;1267;22988;-79
2023/08/04 02:33:45;;;;;;;3.60;0.90;;;;;;;;;;107119;1275;22520;-82
2023/08/04 02:36:13;;;;;;;1.60;0.60;;;;;;;;;;107123;1275;25460;-77
2023/08/04 02:38:40;;;;;;;1.90;0.70;;;;;;;;;;106904;1275;24391;-81
2023/08/04 02:41:08;;;;;;;3.20;0.70;;;;;;;;;;107086;1274;22538;-79
2023/08/04 02:43:35;;;;;;;2.70;0.70;;;;;;;;;;107143;1274;24230;-80
2023/08/04 02:46:02;;;;;;;1.00;0.50;;;;;;;;;;107122;1274;23028;-76
2023/08/04 02:48:32;;;;;;;4.40;0.80;;;;;;;;;;107062;1274;26499;-75
2023/08/04 02:51:14;;;;;;;2.60;0.70;;;;;;;;;;106989;1257;22589;-81
2023/08/04 02:53:45;;;;;;;2.90;0.80;;;;;;;;;;107079;1270;24187;-82
2023/08/04 02:56:13;;;;;;;1.90;0.60;;;;;;;;;;107102;1274;24253;-74
2023/08/04 02:58:41;;;;;;;1.40;0.60;;;;;;;;;;106977;1274;22527;-80
2023/08/04 03:01:08;;;;;;;2.80;0.80;;;;;;;;;;107031;1256;24186;-76
2023/08/04 03:03:35;;;;;;;2.60;0.70;;;;;;;;;;107123;1274;25179;-78
2023/08/04 03:06:02;;;;;;;3.00;0.70;;;;;;;;;;107116;1274;22547;-82
2023/08/04 03:08:29;;;;;;;2.40;0.70;;;;;;;;;;107087;1274;22530;-76
2023/08/04 03:10:56;;;;;;;2.50;0.60;;;;;;;;;;106836;1261;22759;-77
2023/08/04 03:13:23;;;;;;;2.70;0.70;;;;;;;;;;107096;1275;22531;-76
2023/08/04 03:15:53;;;;;;;1.80;0.90;;;;;;;;;;106902;1275;24235;-80
2023/08/04 03:18:20;;;;;;;2.10;0.80;;;;;;;;;;106922;1267;22534;-76
2023/08/04 03:20:47;;;;;;;1.70;0.60;;;;;;;;;;106979;1257;22519;-79
2023/08/04 03:23:13;;;;;;;1.20;0.70;;;;;;;;;;107166;1274;22676;-78
2023/08/04 03:25:40;;;;;;;2.80;0.80;;;;;;;;;;107143;1268;25224;-78
2023/08/04 03:28:07;;;;;;;1.90;0.80;;;;;;;;;;107044;1275;22488;-75
2023/08/04 03:30:34;;;;;;;5.10;0.60;;;;;;;;;;106970;1275;22518;-75
2023/08/04 03:33:01;;;;;;;2.00;0.80;;;;;;;;;;106995;1269;22520;-77
2023/08/04 03:35:30;;;;;;;2.30;0.60;;;;;;;;;;107118;1275;22521;-74
2023/08/04 03:37:57;;;;;;;2.30;0.70;;;;;;;;;;106979;1275;24244;-81
2023/08/04 03:40:23;;;;;;;3.80;0.70;;;;;;;;;;106897;1251;22525;-81
2023/08/04 03:42:50;;;;;;;1.60;0.60;;;;;;;;;;106953;1275;24190;-79
2023/08/04 03:45:17;;;;;;;2.40;0.60;;;;;;;;;;107159;1275;22528;-79
2023/08/04 03:47:44;;;;;;;5.00;0.90;;;;;;;;;;107056;1275;22520;-78
2023/08/04 03:50:11;;;;;;;2.80;0.90;;;;;;;;;;106855;1275;23914;-75
2023/08/04 03:52:37;;;;;;;2.70;0.90;;;;;;;;;;107002;1256;22562;-78
2023/08/04 03:55:06;;;;;;;1.70;0.60;;;;;;;;;;106939;1275;22525;-74
2023/08/04 03:57:32;;;;;;;3.00;0.80;;;;;;;;;;106936;1276;22532;-75
2023/08/04 04:00:00;;;;;;;3.20;0.90;;;;;;;;;;106853;1276;24225;-82
2023/08/04 04:02:28;;;;;;;3.50;0.80;;;;;;;;;;107106;1256;22520;-81
2023/08/04 04:04:55;;;;;;;3.00;1.00;;;;;;;;;;107055;1275;22517;-75
2023/08/04 04:07:22;;;;;;;4.30;0.90;;;;;;;;;;107094;1275;24217;-77
2023/08/04 04:09:49;;;;;;;4.50;0.80;;;;;;;;;;107050;1275;24197;-75
2023/08/04 04:12:15;;;;;;;3.70;0.80;;;;;;;;;;106989;1254;25418;-79
2023/08/04 04:14:42;;;;;;;4.30;0.90;;;;;;;;;;106879;1275;25268;-74
2023/08/04 04:17:09;;;;;;;3.70;0.80;;;;;;;;;;106913;1275;22514;-75
2023/08/04 04:19:36;;;;;;;2.80;0.70;;;;;;;;;;106902;1275;22524;-79
2023/08/04 04:22:03;;;;;;;3.60;0.90;;;;;;;;;;107045;1256;22551;-82
2023/08/04 04:24:30;;;;;;;2.20;0.60;;;;;;;;;;106973;1275;23309;-78
2023/08/04 04:26:56;;;;;;;3.60;0.80;;;;;;;;;;107070;1275;22783;-77
2023/08/04 04:29:23;;;;;;;3.60;1.10;;;;;;;;;;107050;1275;22627;-79
2023/08/04 04:31:50;;;;;;;2.50;0.80;;;;;;;;;;106962;1255;22527;-81
2023/08/04 04:34:17;;;;;;;3.20;0.90;;;;;;;;;;106865;1275;23863;-80
2023/08/04 04:36:44;;;;;;;7.40;1.30;;;;;;;;;;106885;1275;22606;-78
2023/08/04 04:39:11;;;;;;;6.20;1.00;;;;;;;;;;106919;1275;23130;-75
2023/08/04 04:41:39;;;;;;;6.80;1.00;;;;;;;;;;107084;1275;24622;-77
2023/08/04 04:44:14;;;;;;;3.00;0.90;;;;;;;;;;106889;1275;23864;-79
2023/08/04 04:46:41;;;;;;;4.50;1.10;;;;;;;;;;106903;1275;25343;-75
2023/08/04 04:49:07;;;;;;;4.60;0.80;;;;;;;;;;107033;1275;22590;-81
2023/08/04 04:51:34;;;;;;;3.40;0.80;;;;;;;;;;106849;1275;22526;-73
2023/08/04 04:54:01;;;;;;;5.20;1.10;;;;;;;;;;106846;1260;22521;-74
2023/08/04 04:56:28;;;;;;;3.80;0.90;;;;;;;;;;106856;1276;25366;-78
2023/08/04 04:58:55;;;;;;;4.90;0.90;;;;;;;;;;106869;1276;22528;-76
2023/08/04 05:01:22;;;;;;;3.30;1.00;;;;;;;;;;106866;1276;22627;-77
2023/08/04 05:03:48;;;;;;;3.40;0.80;;;;;;;;;;107102;1256;24221;-79
2023/08/04 05:06:15;;;;;;;3.80;0.90;;;;;;;;;;106886;1275;21886;-79
2023/08/04 05:08:42;;;;;;;5.80;1.00;;;;;;;;;;107126;1275;22627;-82
2023/08/04 05:11:09;;;;;;;8.30;1.30;;;;;;;;;;106865;1275;22644;-76
2023/08/04 05:13:36;;;;;;;5.60;1.20;;;;;;;;;;107016;1257;22524;-79
2023/08/04 05:16:04;;;;;;;11.30;1.70;;;;;;;;;;107010;1276;24444;-80
2023/08/04 05:18:31;;;;;;;7.60;1.20;;;;;;;;;;107010;1276;22553;-76
2023/08/04 05:20:58;;;;;;;8.40;1.20;;;;;;;;;;106867;1276;24320;-78
2023/08/04 05:23:25;;;;;;;7.00;1.10;;;;;;;;;;106878;1254;22523;-78
2023/08/04 05:25:51;;;;;;;5.40;1.20;;;;;;;;;;107101;1275;25851;-75
2023/08/04 05:28:18;;;;;;;8.60;1.50;;;;;;;;;;107063;1274;25360;-79
2023/08/04 05:30:45;;;;;;;7.20;1.60;;;;;;;;;;107088;1275;22484;-80
2023/08/04 05:33:11;;;;;;;11.20;1.30;;;;;;;;;;107060;1275;24199;-78
2023/08/04 05:35:41;;;;;;;14.00;2.20;;;;;;;;;;106914;1275;25230;-80
2023/08/04 05:38:07;;;;;;;12.00;1.80;;;;;;;;;;107109;1275;22532;-82
2023/08/04 05:40:34;;;;;;;16.00;2.10;;;;;;;;;;106941;1274;24453;-77
2023/08/04 05:43:01;;;;;;;17.20;2.20;;;;;;;;;;106943;1251;22538;-81
2023/08/04 05:45:28;;;;;;;13.00;1.80;;;;;;;;;;106960;1274;23900;-79
2023/08/04 05:47:54;;;;;;;10.00;1.50;;;;;;;;;;107132;1274;22521;-81
2023/08/04 05:50:21;;;;;;;8.60;1.50;;;;;;;;;;107136;1274;22520;-83
2023/08/04 05:52:48;;;;;;;8.90;1.60;;;;;;;;;;107163;1273;22761;-75
2023/08/04 05:55:15;;;;;;;6.60;1.40;;;;;;;;;;106910;1256;22482;-79
2023/08/04 05:57:41;;;;;;;6.10;1.40;;;;;;;;;;107027;1274;25265;-76
2023/08/04 06:00:08;;;;;;;8.50;1.30;;;;;;;;;;107153;1274;22514;-77
2023/08/04 06:02:35;;;;;;;9.00;1.60;;;;;;;;;;107088;1275;24292;-80
2023/08/04 06:05:02;;;;;;;11.50;1.50;;;;;;;;;;106916;1261;22678;-81
2023/08/04 06:07:29;;;;;;;9.80;1.40;;;;;;;;;;106941;1275;22787;-80
2023/08/04 06:09:56;;;;;;;8.00;1.50;;;;;;;;;;106936;1275;23050;-77
2023/08/04 06:12:23;;;;;;;7.60;1.50;;;;;;;;;;107096;1275;22521;-76
2023/08/04 06:14:49;;;;;;;5.80;1.40;;;;;;;;;;106999;1257;24187;-76
2023/08/04 06:17:16;;;;;;;9.90;1.40;;;;;;;;;;107080;1275;22520;-80
2023/08/04 06:19:43;;;;;;;9.50;1.40;;;;;;;;;;107144;1275;24655;-77
2023/08/04 06:22:10;;;;;;;8.00;1.30;;;;;;;;;;106914;1275;23217;-82
2023/08/04 06:24:36;;;;;;;11.60;1.20;;;;;;;;;;106997;1272;22597;-80
2023/08/04 06:27:04;;;;;;;9.30;1.60;;;;;;;;;;106894;1268;25216;-76
2023/08/04 06:29:32;;;;;;;10.40;1.90;;;;;;;;;;107131;1275;22734;-80
2023/08/04 06:31:58;;;;;;;7.30;1.60;;;;;;;;;;107091;1275;22624;-79
2023/08/04 06:34:25;;;;;;;5.90;1.30;;;;;;;;;;106859;1256;22536;-80
2023/08/04 06:36:52;;;;;;;5.50;1.10;;;;;;;;;;106829;1275;24232;-78
2023/08/04 06:39:19;;;;;;;3.50;0.90;;;;;;;;;;107066;1275;22524;-83
2023/08/04 06:41:46;;;;;;;4.00;0.80;;;;;;;;;;107084;1275;25363;-81
2023/08/04 06:44:13;;;;;;;4.30;1.10;;;;;;;;;;107064;1253;23885;-82
2023/08/04 06:46:40;;;;;;;3.40;0.80;;;;;;;;;;106910;1275;22534;-83
2023/08/04 06:49:07;;;;;;;3.60;1.00;;;;;;;;;;106945;1275;22544;-81
2023/08/04 06:51:34;;;;;;;3.60;0.90;;;;;;;;;;106887;1275;24350;-81
2023/08/04 06:54:01;;;;;;;3.90;0.70;;;;;;;;;;106944;1274;22595;-76
2023/08/04 06:56:28;;;;;;;4.30;1.00;;;;;;;;;;107124;1256;24227;-77
2023/08/04 06:58:55;;;;;;;4.40;1.10;;;;;;;;;;107002;1275;24034;-77
2023/08/04 07:01:21;;;;;;;10.10;1.30;;;;;;;;;;107100;1275;22579;-83
2023/08/04 07:03:48;;;;;;;5.60;1.10;;;;;;;;;;107063;1275;24490;-81
2023/08/04 07:06:15;;;;;;;4.60;1.10;;;;;;;;;;106951;1258;22530;-78
2023/08/04 07:08:41;;;;;;;5.70;1.00;;;;;;;;;;107128;1275;22536;-83
2023/08/04 07:11:18;;;;;;;4.30;1.10;;;;;;;;;;107132;1275;22528;-76
2023/08/04 07:13:45;;;;;;;6.20;1.10;;;;;;;;;;106957;1275;24286;-77
2023/08/04 07:16:12;;;;;;;6.70;0.80;;;;;;;;;;107040;1268;24221;-83
2023/08/04 07:18:39;;;;;;;9.40;1.40;;;;;;;;;;106953;1275;24183;-83
2023/08/04 07:21:09;;;;;;;7.20;1.40;;;;;;;;;;107077;1275;24976;-80
2023/08/04 07:23:37;;;;;;;4.90;1.10;;;;;;;;;;107210;1274;22655;-80
2023/08/04 07:26:04;;;;;;;4.40;0.70;;;;;;;;;;106912;1257;22770;-78
2023/08/04 07:28:31;;;;;;;4.00;0.90;;;;;;;;;;106901;1275;22539;-76
2023/08/04 07:30:59;;;;;;;7.00;1.00;;;;;;;;;;106922;1275;24226;-79
2023/08/04 07:33:26;;;;;;;4.90;1.00;;;;;;;;;;106958;1275;22563;-79
2023/08/04 07:35:53;;;;;;;4.20;1.00;;;;;;;;;;107215;1275;24178;-77
2023/08/04 07:38:20;;;;;;;2.90;1.10;;;;;;;;;;107559;1275;24231;-76
2023/08/04 07:40:47;;;;;;;2.30;0.70;;;;;;;;;;107148;1275;23256;-77
2023/08/04 07:43:14;;;;;;;3.60;1.00;;;;;;;;;;106924;1275;22569;-79
2023/08/04 07:45:41;;;;;;;3.30;0.90;;;;;;;;;;106927;1259;25329;-81
2023/08/04 07:48:08;;;;;;;4.10;0.90;;;;;;;;;;107090;1275;26481;-78
2023/08/04 07:50:36;;;;;;;3.30;0.80;;;;;;;;;;106894;1275;24271;-76
2023/08/04 07:53:03;;;;;;;1.10;0.50;;;;;;;;;;106929;1275;25248;-81
2023/08/04 07:55:33;;;;;;;3.00;0.90;;;;;;;;;;107124;1251;25420;-77
2023/08/04 07:58:00;;;;;;;3.70;0.90;;;;;;;;;;106979;1275;22485;-82
2023/08/04 08:00:38;;;;;;;2.80;0.80;;;;;;;;;;107116;1274;22517;-81
2023/08/04 08:03:05;;;;;;;3.70;0.90;;;;;;;;;;107120;1275;22517;-80
2023/08/04 08:05:32;;;;;;;1.90;0.80;;;;;;;;;;107042;1253;22532;-83
2023/08/04 08:07:59;;;;;;;3.30;1.00;;;;;;;;;;106871;1275;25364;-76
2023/08/04 08:10:26;;;;;;;4.10;1.00;;;;;;;;;;106980;1275;22520;-78
2023/08/04 08:12:53;;;;;;;1.80;0.80;;;;;;;;;;106945;1275;24316;-86
2023/08/04 08:15:20;;;;;;;3.20;0.60;;;;;;;;;;106943;1275;26602;-81
2023/08/04 08:17:46;;;;;;;2.80;0.90;;;;;;;;;;107044;1256;24260;-79
2023/08/04 08:20:13;;;;;;;3.30;0.80;;;;;;;;;;106906;1275;22533;-77
2023/08/04 08:22:40;;;;;;;3.00;0.80;;;;;;;;;;107055;1275;24715;-81
2023/08/04 08:25:10;;;;;;;2.40;0.70;;;;;;;;;;107083;1275;22466;-80
2023/08/04 08:27:37;;;;;;;2.70;0.90;;;;;;;;;;106866;1275;22537;-79
2023/08/04 08:30:04;;;;;;;1.90;0.60;;;;;;;;;;106893;1275;24478;-77
2023/08/04 08:32:33;;;;;;;1.60;0.80;;;;;;;;;;106948;1275;22653;-78
2023/08/04 08:35:00;;;;;;;1.80;0.90;;;;;;;;;;106900;1275;24247;-79
2023/08/04 08:37:39;;;;;;;3.20;1.00;;;;;;;;;;107085;1256;22521;-84
2023/08/04 08:40:06;;;;;;;2.30;0.80;;;;;;;;;;107073;1275;22617;-79
2023/08/04 08:42:36;;;;;;;3.90;1.00;;;;;;;;;;106978;1275;22523;-78
2023/08/04 08:45:06;;;;;;;1.90;0.80;;;;;;;;;;106937;1275;24407;-78
2023/08/04 08:47:36;;;;;;;2.20;0.90;;;;;;;;;;107032;1255;22479;-82
2023/08/04 08:50:05;;;;;;;2.50;0.70;;;;;;;;;;106869;1275;22517;-80
2023/08/04 08:52:38;;;;;;;3.00;0.90;;;;;;;;;;107063;1275;22535;-82
2023/08/04 08:55:05;;;;;;;2.10;0.70;;;;;;;;;;106897;1275;22637;-78
2023/08/04 08:57:48;;;;;;;1.90;0.80;;;;;;;;;;106993;1256;22519;-80
2023/08/04 09:00:15;;;;;;;2.40;1.00;;;;;;;;;;106602;1272;22513;-77
2023/08/04 09:02:48;;;;;;;2.30;1.00;;;;;;;;;;106789;1253;22613;-79
2023/08/04 09:05:16;;;;;;;3.40;0.80;;;;;;;;;;107045;1275;22639;-82
2023/08/04 09:07:59;;;;;;;3.00;1.10;;;;;;;;;;107085;1256;25266;-81
2023/08/04 09:10:28;;;;;;;6.50;1.00;;;;;;;;;;106911;1275;27025;-82
2023/08/04 09:12:56;;;;;;;2.30;0.90;;;;;;;;;;107038;1275;22493;-79
2023/08/04 09:15:43;;;;;;;3.80;1.00;;;;;;;;;;106905;1275;25304;-77
2023/08/04 09:18:22;;;;;;;1.70;0.60;;;;;;;;;;104526;1275;3320495;-77
2023/08/04 09:21:00;;;;;;;2.80;0.70;;;;;;;;;;107040;1275;22517;-83
2023/08/04 09:23:28;;;;;;;2.10;0.90;;;;;;;;;;107060;1275;22582;-79
2023/08/04 09:25:55;;;;;;;2.10;1.00;;;;;;;;;;106986;1275;25353;-78
2023/08/04 09:28:22;;;;;;;3.00;0.70;;;;;;;;;;107032;1256;23868;-81
2023/08/04 09:31:22;;;;;;;4.50;0.90;;;;;;;;;;106820;1275;24205;-78
2023/08/04 09:33:52;;;;;;;2.20;0.80;;;;;;;;;;106860;1275;25332;-83
2023/08/04 09:36:19;;;;;;;6.40;1.00;;;;;;;;;;106915;1275;24271;-81
2023/08/04 09:38:46;;;;;;;2.00;0.60;;;;;;;;;;106954;1256;24289;-81
2023/08/04 09:41:17;;;;;;;3.20;0.70;;;;;;;;;;107207;1275;25315;-79
2023/08/04 09:43:45;;;;;;;4.00;0.80;;;;;;;;;;107135;1275;22521;-78
2023/08/04 09:46:19;;;;;;;4.70;0.70;;;;;;;;;;107157;1275;22569;-83
2023/08/04 09:49:04;;;;;;;2.60;0.70;;;;;;;;;;107112;1255;25456;-81
2023/08/04 09:51:41;;;;;;;2.50;0.60;;;;;;;;;;106893;1275;22633;-78
2023/08/04 09:54:10;;;;;;;1.90;1.10;;;;;;;;;;106916;1275;22566;-78
2023/08/04 09:56:37;;;;;;;4.00;1.10;;;;;;;;;;106939;1275;22520;-80
2023/08/04 09:59:05;;;;;;;5.20;1.10;;;;;;;;;;107014;1256;22640;-81
2023/08/04 10:01:34;;;;;;;5.30;0.90;;;;;;;;;;107080;1256;22647;-78
2023/08/04 10:04:04;;;;;;;3.50;1.00;;;;;;;;;;110509;1274;22122;-79
2023/08/04 10:06:33;;;;;;;3.50;0.80;;;;;;;;;;110532;1275;22389;-77
2023/08/04 10:09:00;;;;;;;2.40;1.00;;;;;;;;;;110464;1256;22202;-76
2023/08/04 10:11:27;;;;;;;4.60;1.00;;;;;;;;;;110584;1275;22120;-78
2023/08/04 10:13:54;;;;;;;4.50;1.10;;;;;;;;;;110573;1275;22092;-77
2023/08/04 10:16:26;;;;;;;4.40;1.00;;;;;;;;;;110430;1275;23213;-78
2023/08/04 10:18:55;;;;;;;4.40;1.20;;;;;;;;;;110479;1259;22375;-80
2023/08/04 10:21:25;;;;;;;3.60;1.00;;;;;;;;;;110600;1275;22153;-78
2023/08/04 10:23:52;;;;;;;5.40;0.80;;;;;;;;;;110623;1275;22185;-77
2023/08/04 10:26:19;;;;;;;3.00;0.80;;;;;;;;;;110637;1274;22109;-77
2023/08/04 10:29:04;;;;;;;2.60;0.90;;;;;;;;;;110571;1256;22162;-77
2023/08/04 10:31:46;;;;;;;3.20;0.80;;;;;;;;;;110521;1275;22106;-77
2023/08/04 10:34:26;;;;;;;2.20;0.90;;;;;;;;;;110539;1275;22331;-77
2023/08/04 10:36:54;;;;;;;3.80;0.80;;;;;;;;;;110596;1271;22090;-77
2023/08/04 10:39:24;;;;;;;2.10;0.50;;;;;;;;;;110450;1259;22134;-78
2023/08/04 10:41:51;;;;;;;3.30;0.80;;;;;;;;;;110634;1275;22042;-77
2023/08/04 10:44:18;;;;;;;6.00;1.20;;;;;;;;;;110635;1270;22160;-77
2023/08/04 10:46:47;;;;;;;4.40;0.80;;;;;;;;;;110606;1274;22333;-78
2023/08/04 10:49:14;;;;;;;4.30;0.80;;;;;;;;;;110587;1255;22309;-77
2023/08/04 10:51:44;;;;;;;5.70;1.40;;;;;;;;;;110591;1262;22092;-77
2023/08/04 10:54:11;;;;;;;3.10;1.10;;;;;;;;;;110547;1274;22262;-77
2023/08/04 10:56:44;;;;;;;3.90;0.70;;;;;;;;;;110628;1275;22108;-77
2023/08/04 10:59:11;;;;;;;3.10;0.70;;;;;;;;;;110671;1251;22157;-77
2023/08/04 11:01:41;;;;;;;2.80;0.60;;;;;;;;;;110660;1274;22105;-80
2023/08/04 11:04:07;;;;;;;1.90;0.90;;;;;;;;;;110693;1273;22743;-78
2023/08/04 11:09:26;;;;;;;2.70;0.80;;;;;;;;;;110677;1251;22136;-81
2023/08/04 11:11:53;;;;;;;2.30;0.70;;;;;;;;;;110632;1273;22082;-78
2023/08/04 11:14:24;;;;;;;1.70;0.70;;;;;;;;;;110632;1272;23230;-79
2023/08/04 11:16:51;;;;;;;4.40;1.30;;;;;;;;;;110595;1272;22058;-78
2023/08/04 11:19:20;;;;;;;3.50;0.90;;;;;;;;;;110522;1251;22329;-78
2023/08/04 11:21:47;;;;;;;2.10;0.80;;;;;;;;;;110509;1273;22126;-77
2023/08/04 11:24:14;;;;;;;3.70;0.90;;;;;;;;;;110665;1272;22081;-78
2023/08/04 11:26:51;;;;;;;2.60;0.70;;;;;;;;;;110490;1273;22228;-78
2023/08/04 11:29:20;;;;;;;2.20;0.80;;;;;;;;;;110602;1273;22195;-78
2023/08/04 11:31:48;;;;;;;3.50;1.10;;;;;;;;;;111125;1254;22235;-78
2023/08/04 11:34:16;;;;;;;2.70;0.80;;;;;;;;;;110699;1273;22237;-76
2023/08/04 11:36:45;;;;;;;2.30;0.60;;;;;;;;;;110522;1273;22128;-76
2023/08/04 11:39:15;;;;;;;1.80;0.70;;;;;;;;;;110533;1274;22785;-78
2023/08/04 11:41:42;;;;;;;7.70;1.40;;;;;;;;;;110864;1256;22123;-78
2023/08/04 11:44:09;;;;;;;7.30;1.30;;;;;;;;;;110516;1274;22081;-79
2023/08/04 11:46:35;;;;;;;8.70;1.40;;;;;;;;;;110634;1272;22424;-78
2023/08/04 11:49:06;;;;;;;6.90;1.10;;;;;;;;;;110623;1267;22101;-78
2023/08/04 11:51:33;;;;;;;7.00;0.90;;;;;;;;;;110821;1256;22141;-79
2023/08/04 11:54:03;;;;;;;3.20;0.80;;;;;;;;;;110430;1274;22132;-79
2023/08/04 11:56:36;;;;;;;2.90;0.90;;;;;;;;;;110646;1274;22111;-78
2023/08/04 11:59:10;;;;;;;2.80;1.00;;;;;;;;;;110533;1274;22121;-80
2023/08/04 12:01:37;;;;;;;2.90;0.80;;;;;;;;;;110889;1255;22129;-80
2023/08/04 12:04:23;;;;;;;6.60;1.30;;;;;;;;;;110621;1275;22958;-78
2023/08/04 12:07:00;;;;;;;3.50;1.30;;;;;;;;;;110582;1269;22918;-78
2023/08/04 12:09:32;;;;;;;3.00;1.30;;;;;;;;;;110483;1275;22119;-77
2023/08/04 12:12:24;;;;;;;3.00;0.90;;;;;;;;;;110698;1258;22129;-78
2023/08/04 12:14:57;;;;;;;2.50;0.90;;;;;;;;;;110508;1275;22148;-78
2023/08/04 12:17:39;;;;;;;2.70;1.00;;;;;;;;;;110582;1275;22096;-79
2023/08/04 12:20:10;;;;;;;5.20;1.40;;;;;;;;;;110560;1275;22115;-79
2023/08/04 12:22:38;;;;;;;2.70;1.30;;;;;;;;;;110652;1258;22103;-79
2023/08/04 12:25:09;;;;;;;4.10;1.00;;;;;;;;;;110626;1275;21963;-79
2023/08/04 12:27:36;;;;;;;6.60;1.30;;;;;;;;;;110481;1275;22227;-79
2023/08/04 12:30:03;;;;;;;3.60;0.90;;;;;;;;;;110456;1275;22135;-78
2023/08/04 12:32:39;;;;;;;1.70;0.90;;;;;;;;;;110636;1256;22125;-78
2023/08/04 12:35:09;;;;;;;1.70;0.60;;;;;;;;;;110654;1275;22412;-79
2023/08/04 12:37:39;;;;;;;2.70;0.60;;;;;;;;;;110623;1275;22862;-80
2023/08/04 12:40:06;;;;;;;2.60;0.90;;;;;;;;;;110437;1275;22098;-78
2023/08/04 12:42:33;;;;;;;1.90;0.70;;;;;;;;;;110373;1259;22073;-78
2023/08/04 12:45:03;;;;;;;3.40;0.80;;;;;;;;;;110632;1275;22086;-78
2023/08/04 12:47:30;;;;;;;3.60;0.90;;;;;;;;;;110375;1275;22875;-78
2023/08/04 12:49:57;;;;;;;5.20;1.20;;;;;;;;;;110630;1275;22090;-78
2023/08/04 12:52:29;;;;;;;6.80;1.00;;;;;;;;;;110812;1256;22004;-78
2023/08/04 12:54:56;;;;;;;4.10;0.70;;;;;;;;;;110290;1275;22204;-79
2023/08/04 12:57:26;;;;;;;4.10;0.90;;;;;;;;;;110412;1275;22094;-78
2023/08/04 12:59:53;;;;;;;2.10;0.70;;;;;;;;;;110832;1266;22349;-82
2023/08/04 13:02:26;;;;;;;3.10;0.60;;;;;;;;;;110453;1259;22105;-79
2023/08/04 13:04:53;;;;;;;3.30;1.10;;;;;;;;;;110412;1275;22118;-82
2023/08/04 13:07:20;;;;;;;4.40;0.80;;;;;;;;;;110585;1275;22108;-79
2023/08/04 13:09:50;;;;;;;4.30;1.10;;;;;;;;;;110621;1275;22069;-78
2023/08/04 13:12:20;;;;;;;3.20;0.80;;;;;;;;;;110558;1253;22139;-79
2023/08/04 13:14:47;;;;;;;3.00;1.00;;;;;;;;;;110810;1266;22130;-79
2023/08/04 13:17:13;;;;;;;3.20;1.10;;;;;;;;;;110629;1275;22131;-80
2023/08/04 13:19:40;;;;;;;3.90;1.10;;;;;;;;;;110583;1275;22112;-78
2023/08/04 13:22:10;;;;;;;2.80;1.20;;;;;;;;;;110675;1258;22146;-79
2023/08/04 13:24:37;;;;;;;3.30;1.20;;;;;;;;;;110589;1275;22174;-78
2023/08/04 13:27:07;;;;;;;3.30;0.80;;;;;;;;;;110310;1275;22088;-79
2023/08/04 13:29:34;;;;;;;2.60;1.10;;;;;;;;;;110609;1275;22135;-79
2023/08/04 13:32:01;;;;;;;2.20;0.80;;;;;;;;;;110576;1251;22166;-80
2023/08/04 13:34:30;;;;;;;6.40;1.30;;;;;;;;;;110494;1274;22110;-78
2023/08/04 13:36:57;;;;;;;2.90;1.10;;;;;;;;;;110467;1275;22065;-78
2023/08/04 13:39:24;;;;;;;2.20;1.10;;;;;;;;;;110603;1272;22126;-79
2023/08/04 13:41:51;;;;;;;2.30;1.00;;;;;;;;;;110586;1275;22298;-81
2023/08/04 13:44:18;;;;;;;1.80;0.90;;;;;;;;;;110724;1259;22757;-79
2023/08/04 13:46:45;;;;;;;2.50;0.90;;;;;;;;;;110469;1276;22768;-78
2023/08/04 13:49:12;;;;;;;6.40;1.10;;;;;;;;;;110348;1276;22125;-78
2023/08/04 13:51:39;;;;;;;3.50;0.80;;;;;;;;;;110560;1276;22167;-77
2023/08/04 13:54:08;;;;;;;4.30;1.10;;;;;;;;;;110816;1256;22083;-78
2023/08/04 13:56:35;;;;;;;3.00;0.70;;;;;;;;;;110602;1275;22089;-79
2023/08/04 13:59:02;;;;;;;1.60;0.80;;;;;;;;;;110598;1275;22934;-79
2023/08/04 14:01:29;;;;;;;2.10;1.00;;;;;;;;;;110617;1275;22787;-80
2023/08/04 14:03:56;;;;;;;5.90;1.00;;;;;;;;;;110732;1258;22140;-78
2023/08/04 14:06:23;;;;;;;3.40;1.00;;;;;;;;;;110482;1275;22145;-79
2023/08/04 14:08:51;;;;;;;3.30;1.00;;;;;;;;;;110499;1276;23000;-78
2023/08/04 14:11:18;;;;;;;2.40;1.20;;;;;;;;;;110488;1275;22100;-78
2023/08/04 14:13:46;;;;;;;3.50;1.20;;;;;;;;;;110741;1256;21733;-78
2023/08/04 14:16:14;;;;;;;3.00;1.00;;;;;;;;;;110478;1275;23027;-78
2023/08/04 14:18:41;;;;;;;6.20;2.00;;;;;;;;;;110467;1275;22709;-79
2023/08/04 14:21:08;;;;;;;6.70;2.80;;;;;;;;;;110344;1275;22118;-78
2023/08/04 14:23:35;;;;;;;14.50;5.40;;;;;;;;;;110488;1259;22121;-78
2023/08/04 14:26:02;;;;;;;481.20;116.00;;;;;;;;;;110349;1276;22358;-78
2023/08/04 14:28:29;;;;;;;45.00;13.70;;;;;;;;;;110462;1276;22210;-78
2023/08/04 14:30:56;;;;;;;9.70;2.80;;;;;;;;;;110500;1276;22819;-77
2023/08/04 14:33:26;;;;;;;9.40;2.80;;;;;;;;;;110420;1252;22791;-77
2023/08/04 14:35:53;;;;;;;8.90;4.20;;;;;;;;;;110565;1275;22102;-78
2023/08/04 14:38:20;;;;;;;7.80;2.00;;;;;;;;;;110487;1275;22698;-77